sensor_id;sensor_type;location;lat;lon;timestamp;P1;durP1;ratioP1;P2;durP2;ratioP2
34200;SDS011;20469;55.638;37.670;2023-04-05T00:05:09;16.02;;;9.13;;
34200;SDS011;20469;55.638;37.670;2023-04-05T00:07:37;14.82;;;8.88;;
34200;SDS011;20469;55.638;37.670;2023-04-05T00:10:05;20.33;;;9.60;;
34200;SDS011;20469;55.638;37.670;2023-04-05T00:12:51;13.27;;;9.32;;
34200;SDS011;20469;55.638;37.670;2023-04-05T00:15:18;15.75;;;8.90;;
34200;SDS011;20469;55.638;37.670;2023-04-05T00:17:45;15.38;;;9.75;;
34200;SDS011;20469;55.638;37.670;2023-04-05T00:20:12;13.07;;;8.88;;
34200;SDS011;20469;55.638;37.670;2023-04-05T00:22:40;15.13;;;9.30;;
34200;SDS011;20469;55.638;37.670;2023-04-05T00:25:10;13.13;;;8.95;;
34200;SDS011;20469;55.638;37.670;2023-04-05T00:27:38;15.70;;;9.07;;
34200;SDS011;20469;55.638;37.670;2023-04-05T00:30:05;12.52;;;8.85;;
34200;SDS011;20469;55.638;37.670;2023-04-05T00:32:32;14.57;;;8.88;;
34200;SDS011;20469;55.638;37.670;2023-04-05T00:35:00;14.48;;;8.68;;
34200;SDS011;20469;55.638;37.670;2023-04-05T00:37:27;13.80;;;8.70;;
34200;SDS011;20469;55.638;37.670;2023-04-05T00:39:54;13.27;;;9.05;;
34200;SDS011;20469;55.638;37.670;2023-04-05T00:42:22;16.02;;;9.25;;
34200;SDS011;20469;55.638;37.670;2023-04-05T00:44:49;13.63;;;9.10;;
34200;SDS011;20469;55.638;37.670;2023-04-05T00:47:17;11.32;;;8.48;;
34200;SDS011;20469;55.638;37.670;2023-04-05T00:49:44;14.68;;;8.60;;
34200;SDS011;20469;55.638;37.670;2023-04-05T00:52:11;14.75;;;9.20;;
34200;SDS011;20469;55.638;37.670;2023-04-05T00:54:40;13.80;;;9.13;;
34200;SDS011;20469;55.638;37.670;2023-04-05T00:57:08;12.55;;;9.13;;
34200;SDS011;20469;55.638;37.670;2023-04-05T00:59:36;13.00;;;9.13;;
34200;SDS011;20469;55.638;37.670;2023-04-05T01:02:14;11.02;;;8.48;;
34200;SDS011;20469;55.638;37.670;2023-04-05T01:04:59;14.75;;;9.38;;
34200;SDS011;20469;55.638;37.670;2023-04-05T01:07:33;14.63;;;8.90;;
34200;SDS011;20469;55.638;37.670;2023-04-05T01:10:03;12.18;;;8.00;;
34200;SDS011;20469;55.638;37.670;2023-04-05T01:12:34;17.13;;;8.85;;
34200;SDS011;20469;55.638;37.670;2023-04-05T01:15:04;15.95;;;8.82;;
34200;SDS011;20469;55.638;37.670;2023-04-05T01:17:32;14.63;;;9.50;;
34200;SDS011;20469;55.638;37.670;2023-04-05T01:20:04;12.48;;;9.38;;
34200;SDS011;20469;55.638;37.670;2023-04-05T01:28:34;13.15;;;9.00;;
34200;SDS011;20469;55.638;37.670;2023-04-05T01:31:23;17.08;;;10.00;;
34200;SDS011;20469;55.638;37.670;2023-04-05T01:33:58;14.75;;;9.85;;
34200;SDS011;20469;55.638;37.670;2023-04-05T01:36:39;13.18;;;9.13;;
34200;SDS011;20469;55.638;37.670;2023-04-05T01:39:10;15.90;;;8.93;;
34200;SDS011;20469;55.638;37.670;2023-04-05T01:41:40;15.02;;;9.65;;
34200;SDS011;20469;55.638;37.670;2023-04-05T01:44:07;14.38;;;9.00;;
34200;SDS011;20469;55.638;37.670;2023-04-05T01:46:35;12.65;;;8.85;;
34200;SDS011;20469;55.638;37.670;2023-04-05T01:49:02;12.48;;;8.85;;
34200;SDS011;20469;55.638;37.670;2023-04-05T01:51:30;13.90;;;9.88;;
34200;SDS011;20469;55.638;37.670;2023-04-05T01:53:58;16.52;;;9.48;;
34200;SDS011;20469;55.638;37.670;2023-04-05T01:56:25;15.40;;;9.55;;
34200;SDS011;20469;55.638;37.670;2023-04-05T01:58:52;15.75;;;9.93;;
34200;SDS011;20469;55.638;37.670;2023-04-05T02:01:19;17.88;;;9.70;;
34200;SDS011;20469;55.638;37.670;2023-04-05T02:03:46;17.60;;;9.50;;
34200;SDS011;20469;55.638;37.670;2023-04-05T02:06:14;12.75;;;8.77;;
34200;SDS011;20469;55.638;37.670;2023-04-05T02:08:42;16.15;;;9.75;;
34200;SDS011;20469;55.638;37.670;2023-04-05T02:11:09;12.80;;;9.60;;
34200;SDS011;20469;55.638;37.670;2023-04-05T02:13:36;12.15;;;8.98;;
34200;SDS011;20469;55.638;37.670;2023-04-05T02:16:03;16.25;;;9.75;;
34200;SDS011;20469;55.638;37.670;2023-04-05T02:18:30;15.77;;;10.25;;
34200;SDS011;20469;55.638;37.670;2023-04-05T02:21:01;13.05;;;9.75;;
34200;SDS011;20469;55.638;37.670;2023-04-05T02:23:30;13.50;;;10.27;;
34200;SDS011;20469;55.638;37.670;2023-04-05T02:25:58;14.38;;;10.63;;
34200;SDS011;20469;55.638;37.670;2023-04-05T02:28:25;14.05;;;9.95;;
34200;SDS011;20469;55.638;37.670;2023-04-05T02:30:53;16.70;;;10.40;;
34200;SDS011;20469;55.638;37.670;2023-04-05T02:33:20;15.02;;;11.18;;
34200;SDS011;20469;55.638;37.670;2023-04-05T02:35:51;16.92;;;10.48;;
34200;SDS011;20469;55.638;37.670;2023-04-05T02:38:19;13.45;;;9.90;;
34200;SDS011;20469;55.638;37.670;2023-04-05T02:40:49;15.70;;;10.07;;
34200;SDS011;20469;55.638;37.670;2023-04-05T02:43:16;16.20;;;10.05;;
34200;SDS011;20469;55.638;37.670;2023-04-05T02:45:43;22.25;;;10.77;;
34200;SDS011;20469;55.638;37.670;2023-04-05T02:48:12;18.40;;;10.60;;
34200;SDS011;20469;55.638;37.670;2023-04-05T02:50:39;15.82;;;10.05;;
34200;SDS011;20469;55.638;37.670;2023-04-05T02:53:07;14.60;;;9.57;;
34200;SDS011;20469;55.638;37.670;2023-04-05T02:55:35;13.82;;;10.32;;
34200;SDS011;20469;55.638;37.670;2023-04-05T02:58:02;16.80;;;9.48;;
34200;SDS011;20469;55.638;37.670;2023-04-05T03:00:29;17.85;;;10.60;;
34200;SDS011;20469;55.638;37.670;2023-04-05T03:02:57;14.63;;;9.98;;
34200;SDS011;20469;55.638;37.670;2023-04-05T03:05:24;13.38;;;9.98;;
34200;SDS011;20469;55.638;37.670;2023-04-05T03:07:52;17.13;;;10.05;;
34200;SDS011;20469;55.638;37.670;2023-04-05T03:10:20;17.30;;;10.00;;
34200;SDS011;20469;55.638;37.670;2023-04-05T03:12:54;13.23;;;9.20;;
34200;SDS011;20469;55.638;37.670;2023-04-05T03:15:21;14.02;;;9.80;;
34200;SDS011;20469;55.638;37.670;2023-04-05T03:17:48;12.93;;;9.70;;
34200;SDS011;20469;55.638;37.670;2023-04-05T03:20:15;15.05;;;8.75;;
34200;SDS011;20469;55.638;37.670;2023-04-05T03:22:42;14.15;;;9.15;;
34200;SDS011;20469;55.638;37.670;2023-04-05T03:25:10;17.23;;;9.80;;
34200;SDS011;20469;55.638;37.670;2023-04-05T03:27:38;16.67;;;9.48;;
34200;SDS011;20469;55.638;37.670;2023-04-05T03:30:05;17.10;;;9.60;;
34200;SDS011;20469;55.638;37.670;2023-04-05T03:32:33;17.48;;;9.40;;
34200;SDS011;20469;55.638;37.670;2023-04-05T03:35:00;14.30;;;9.88;;
34200;SDS011;20469;55.638;37.670;2023-04-05T03:37:28;16.40;;;9.55;;
34200;SDS011;20469;55.638;37.670;2023-04-05T03:39:55;16.90;;;9.07;;
34200;SDS011;20469;55.638;37.670;2023-04-05T03:42:22;14.82;;;9.50;;
34200;SDS011;20469;55.638;37.670;2023-04-05T03:44:51;14.02;;;10.32;;
34200;SDS011;20469;55.638;37.670;2023-04-05T03:47:18;15.63;;;9.10;;
34200;SDS011;20469;55.638;37.670;2023-04-05T03:49:45;13.82;;;9.02;;
34200;SDS011;20469;55.638;37.670;2023-04-05T03:52:12;17.27;;;9.07;;
34200;SDS011;20469;55.638;37.670;2023-04-05T03:54:39;13.27;;;8.85;;
34200;SDS011;20469;55.638;37.670;2023-04-05T03:57:06;17.20;;;9.63;;
34200;SDS011;20469;55.638;37.670;2023-04-05T03:59:33;16.08;;;9.65;;
34200;SDS011;20469;55.638;37.670;2023-04-05T04:02:01;19.08;;;10.10;;
34200;SDS011;20469;55.638;37.670;2023-04-05T04:04:28;16.70;;;9.68;;
34200;SDS011;20469;55.638;37.670;2023-04-05T04:06:55;16.98;;;10.05;;
34200;SDS011;20469;55.638;37.670;2023-04-05T04:09:22;15.98;;;9.73;;
34200;SDS011;20469;55.638;37.670;2023-04-05T04:11:50;13.48;;;9.25;;
34200;SDS011;20469;55.638;37.670;2023-04-05T04:14:17;19.42;;;9.82;;
34200;SDS011;20469;55.638;37.670;2023-04-05T04:16:44;12.38;;;9.02;;
34200;SDS011;20469;55.638;37.670;2023-04-05T04:19:11;14.20;;;8.95;;
34200;SDS011;20469;55.638;37.670;2023-04-05T04:21:38;17.95;;;9.27;;
34200;SDS011;20469;55.638;37.670;2023-04-05T04:24:05;17.33;;;9.50;;
34200;SDS011;20469;55.638;37.670;2023-04-05T04:26:32;15.40;;;9.25;;
34200;SDS011;20469;55.638;37.670;2023-04-05T04:29:03;16.63;;;9.25;;
34200;SDS011;20469;55.638;37.670;2023-04-05T04:31:32;17.50;;;9.20;;
34200;SDS011;20469;55.638;37.670;2023-04-05T04:33:59;18.02;;;9.30;;
34200;SDS011;20469;55.638;37.670;2023-04-05T04:36:28;15.65;;;10.20;;
34200;SDS011;20469;55.638;37.670;2023-04-05T04:39:00;16.55;;;9.65;;
34200;SDS011;20469;55.638;37.670;2023-04-05T04:41:30;14.13;;;9.68;;
34200;SDS011;20469;55.638;37.670;2023-04-05T04:44:01;13.48;;;10.10;;
34200;SDS011;20469;55.638;37.670;2023-04-05T04:46:29;14.15;;;9.60;;
34200;SDS011;20469;55.638;37.670;2023-04-05T04:49:00;13.75;;;9.30;;
34200;SDS011;20469;55.638;37.670;2023-04-05T04:51:31;12.68;;;9.73;;
34200;SDS011;20469;55.638;37.670;2023-04-05T04:53:58;14.13;;;9.98;;
34200;SDS011;20469;55.638;37.670;2023-04-05T04:56:26;12.20;;;9.27;;
34200;SDS011;20469;55.638;37.670;2023-04-05T04:58:54;14.48;;;9.65;;
34200;SDS011;20469;55.638;37.670;2023-04-05T05:01:22;14.55;;;10.02;;
34200;SDS011;20469;55.638;37.670;2023-04-05T05:03:50;16.83;;;10.25;;
34200;SDS011;20469;55.638;37.670;2023-04-05T05:06:18;19.85;;;10.50;;
34200;SDS011;20469;55.638;37.670;2023-04-05T05:08:47;15.13;;;9.75;;
34200;SDS011;20469;55.638;37.670;2023-04-05T05:11:14;17.55;;;10.50;;
34200;SDS011;20469;55.638;37.670;2023-04-05T05:13:41;16.10;;;10.02;;
34200;SDS011;20469;55.638;37.670;2023-04-05T05:16:08;18.60;;;10.68;;
34200;SDS011;20469;55.638;37.670;2023-04-05T05:18:36;19.02;;;11.20;;
34200;SDS011;20469;55.638;37.670;2023-04-05T05:21:03;16.00;;;10.50;;
34200;SDS011;20469;55.638;37.670;2023-04-05T05:23:49;18.20;;;10.57;;
34200;SDS011;20469;55.638;37.670;2023-04-05T05:26:17;20.77;;;10.93;;
34200;SDS011;20469;55.638;37.670;2023-04-05T05:28:44;17.40;;;10.65;;
34200;SDS011;20469;55.638;37.670;2023-04-05T05:31:14;17.70;;;10.52;;
34200;SDS011;20469;55.638;37.670;2023-04-05T05:33:43;15.57;;;10.23;;
34200;SDS011;20469;55.638;37.670;2023-04-05T05:36:15;16.85;;;10.35;;
34200;SDS011;20469;55.638;37.670;2023-04-05T05:38:42;16.08;;;9.68;;
34200;SDS011;20469;55.638;37.670;2023-04-05T05:41:09;20.77;;;10.35;;
34200;SDS011;20469;55.638;37.670;2023-04-05T05:43:36;15.40;;;9.32;;
34200;SDS011;20469;55.638;37.670;2023-04-05T05:46:03;20.15;;;10.57;;
34200;SDS011;20469;55.638;37.670;2023-04-05T05:48:30;18.95;;;9.68;;
34200;SDS011;20469;55.638;37.670;2023-04-05T05:50:58;16.42;;;10.18;;
34200;SDS011;20469;55.638;37.670;2023-04-05T05:53:27;20.48;;;10.52;;
34200;SDS011;20469;55.638;37.670;2023-04-05T05:55:54;15.20;;;9.82;;
34200;SDS011;20469;55.638;37.670;2023-04-05T05:58:22;18.25;;;9.63;;
34200;SDS011;20469;55.638;37.670;2023-04-05T06:00:49;18.90;;;9.48;;
34200;SDS011;20469;55.638;37.670;2023-04-05T06:03:16;17.02;;;10.30;;
34200;SDS011;20469;55.638;37.670;2023-04-05T06:05:54;17.88;;;10.00;;
34200;SDS011;20469;55.638;37.670;2023-04-05T06:08:23;13.45;;;9.20;;
34200;SDS011;20469;55.638;37.670;2023-04-05T06:10:51;16.13;;;9.25;;
34200;SDS011;20469;55.638;37.670;2023-04-05T06:13:18;12.30;;;8.75;;
34200;SDS011;20469;55.638;37.670;2023-04-05T06:15:49;15.68;;;9.05;;
34200;SDS011;20469;55.638;37.670;2023-04-05T06:18:16;15.65;;;8.75;;
34200;SDS011;20469;55.638;37.670;2023-04-05T06:20:43;16.92;;;8.98;;
34200;SDS011;20469;55.638;37.670;2023-04-05T06:23:10;15.20;;;8.50;;
34200;SDS011;20469;55.638;37.670;2023-04-05T06:25:38;20.98;;;8.23;;
34200;SDS011;20469;55.638;37.670;2023-04-05T06:28:06;16.92;;;8.70;;
34200;SDS011;20469;55.638;37.670;2023-04-05T06:33:19;22.13;;;7.68;;
34200;SDS011;20469;55.638;37.670;2023-04-05T06:35:46;17.17;;;8.73;;
34200;SDS011;20469;55.638;37.670;2023-04-05T06:38:13;15.35;;;8.07;;
34200;SDS011;20469;55.638;37.670;2023-04-05T06:40:41;14.55;;;8.90;;
34200;SDS011;20469;55.638;37.670;2023-04-05T06:43:08;17.30;;;7.88;;
34200;SDS011;20469;55.638;37.670;2023-04-05T06:45:38;16.17;;;8.20;;
34200;SDS011;20469;55.638;37.670;2023-04-05T06:48:06;21.00;;;8.88;;
34200;SDS011;20469;55.638;37.670;2023-04-05T06:50:33;14.43;;;7.95;;
34200;SDS011;20469;55.638;37.670;2023-04-05T06:53:01;20.60;;;8.35;;
34200;SDS011;20469;55.638;37.670;2023-04-05T06:55:29;21.42;;;8.13;;
34200;SDS011;20469;55.638;37.670;2023-04-05T06:57:57;20.00;;;8.43;;
34200;SDS011;20469;55.638;37.670;2023-04-05T07:00:24;15.55;;;7.70;;
34200;SDS011;20469;55.638;37.670;2023-04-05T07:02:51;20.25;;;8.23;;
34200;SDS011;20469;55.638;37.670;2023-04-05T07:05:18;25.88;;;8.77;;
34200;SDS011;20469;55.638;37.670;2023-04-05T07:07:45;15.60;;;7.95;;
34200;SDS011;20469;55.638;37.670;2023-04-05T07:10:14;17.40;;;8.07;;
34200;SDS011;20469;55.638;37.670;2023-04-05T07:12:41;14.70;;;7.78;;
34200;SDS011;20469;55.638;37.670;2023-04-05T07:15:08;18.27;;;8.25;;
34200;SDS011;20469;55.638;37.670;2023-04-05T07:17:36;14.90;;;8.50;;
34200;SDS011;20469;55.638;37.670;2023-04-05T07:20:03;17.75;;;8.38;;
34200;SDS011;20469;55.638;37.670;2023-04-05T07:22:32;17.73;;;8.60;;
34200;SDS011;20469;55.638;37.670;2023-04-05T07:25:00;17.85;;;8.20;;
34200;SDS011;20469;55.638;37.670;2023-04-05T07:27:28;15.80;;;8.07;;
34200;SDS011;20469;55.638;37.670;2023-04-05T07:29:56;19.10;;;8.65;;
34200;SDS011;20469;55.638;37.670;2023-04-05T07:32:23;20.23;;;8.45;;
34200;SDS011;20469;55.638;37.670;2023-04-05T07:34:51;22.58;;;8.60;;
34200;SDS011;20469;55.638;37.670;2023-04-05T07:37:18;21.42;;;8.57;;
34200;SDS011;20469;55.638;37.670;2023-04-05T07:39:45;16.55;;;7.80;;
34200;SDS011;20469;55.638;37.670;2023-04-05T07:42:12;22.20;;;8.27;;
34200;SDS011;20469;55.638;37.670;2023-04-05T07:44:39;18.02;;;8.30;;
34200;SDS011;20469;55.638;37.670;2023-04-05T07:47:06;16.73;;;7.85;;
34200;SDS011;20469;55.638;37.670;2023-04-05T07:49:33;16.20;;;8.48;;
34200;SDS011;20469;55.638;37.670;2023-04-05T07:52:02;17.70;;;8.30;;
34200;SDS011;20469;55.638;37.670;2023-04-05T07:54:30;15.88;;;7.60;;
34200;SDS011;20469;55.638;37.670;2023-04-05T07:56:58;16.25;;;7.85;;
34200;SDS011;20469;55.638;37.670;2023-04-05T07:59:26;12.73;;;7.47;;
34200;SDS011;20469;55.638;37.670;2023-04-05T08:01:53;20.75;;;8.18;;
34200;SDS011;20469;55.638;37.670;2023-04-05T08:04:27;19.25;;;8.20;;
34200;SDS011;20469;55.638;37.670;2023-04-05T08:06:54;20.63;;;8.23;;
34200;SDS011;20469;55.638;37.670;2023-04-05T08:09:21;18.27;;;8.68;;
34200;SDS011;20469;55.638;37.670;2023-04-05T08:11:48;18.63;;;8.90;;
34200;SDS011;20469;55.638;37.670;2023-04-05T08:14:15;14.52;;;8.20;;
34200;SDS011;20469;55.638;37.670;2023-04-05T08:16:42;18.92;;;8.13;;
34200;SDS011;20469;55.638;37.670;2023-04-05T08:21:56;14.57;;;8.02;;
34200;SDS011;20469;55.638;37.670;2023-04-05T08:24:23;21.42;;;7.90;;
34200;SDS011;20469;55.638;37.670;2023-04-05T08:26:50;14.57;;;7.28;;
34200;SDS011;20469;55.638;37.670;2023-04-05T08:29:17;14.50;;;7.75;;
34200;SDS011;20469;55.638;37.670;2023-04-05T08:31:44;20.70;;;7.80;;
34200;SDS011;20469;55.638;37.670;2023-04-05T08:34:12;19.58;;;7.93;;
34200;SDS011;20469;55.638;37.670;2023-04-05T08:36:39;16.02;;;7.28;;
34200;SDS011;20469;55.638;37.670;2023-04-05T08:39:27;19.30;;;8.40;;
34200;SDS011;20469;55.638;37.670;2023-04-05T08:41:59;19.02;;;7.82;;
34200;SDS011;20469;55.638;37.670;2023-04-05T08:44:30;15.10;;;7.50;;
34200;SDS011;20469;55.638;37.670;2023-04-05T08:47:01;17.63;;;7.05;;
34200;SDS011;20469;55.638;37.670;2023-04-05T08:49:28;11.48;;;6.90;;
34200;SDS011;20469;55.638;37.670;2023-04-05T08:51:55;13.18;;;6.72;;
34200;SDS011;20469;55.638;37.670;2023-04-05T08:54:26;17.52;;;6.95;;
34200;SDS011;20469;55.638;37.670;2023-04-05T08:56:53;14.60;;;7.80;;
34200;SDS011;20469;55.638;37.670;2023-04-05T08:59:21;15.45;;;6.82;;
34200;SDS011;20469;55.638;37.670;2023-04-05T09:01:50;14.38;;;7.00;;
34200;SDS011;20469;55.638;37.670;2023-04-05T09:04:20;21.98;;;7.78;;
34200;SDS011;20469;55.638;37.670;2023-04-05T09:06:50;15.35;;;6.80;;
34200;SDS011;20469;55.638;37.670;2023-04-05T09:09:17;15.32;;;7.13;;
34200;SDS011;20469;55.638;37.670;2023-04-05T09:11:47;13.55;;;6.93;;
34200;SDS011;20469;55.638;37.670;2023-04-05T09:14:15;17.88;;;7.18;;
34200;SDS011;20469;55.638;37.670;2023-04-05T09:16:43;19.80;;;7.20;;
34200;SDS011;20469;55.638;37.670;2023-04-05T09:19:10;15.82;;;6.82;;
34200;SDS011;20469;55.638;37.670;2023-04-05T09:22:11;15.65;;;7.18;;
34200;SDS011;20469;55.638;37.670;2023-04-05T09:24:37;14.27;;;7.60;;
34200;SDS011;20469;55.638;37.670;2023-04-05T09:27:12;16.48;;;6.75;;
34200;SDS011;20469;55.638;37.670;2023-04-05T09:29:41;14.27;;;7.53;;
34200;SDS011;20469;55.638;37.670;2023-04-05T09:32:17;15.15;;;6.97;;
34200;SDS011;20469;55.638;37.670;2023-04-05T09:34:46;17.60;;;7.10;;
34200;SDS011;20469;55.638;37.670;2023-04-05T09:37:17;18.67;;;7.05;;
34200;SDS011;20469;55.638;37.670;2023-04-05T09:39:47;18.25;;;6.45;;
34200;SDS011;20469;55.638;37.670;2023-04-05T09:42:17;13.68;;;6.60;;
34200;SDS011;20469;55.638;37.670;2023-04-05T09:47:29;23.15;;;6.70;;
34200;SDS011;20469;55.638;37.670;2023-04-05T09:49:58;13.45;;;6.60;;
34200;SDS011;20469;55.638;37.670;2023-04-05T09:52:46;10.15;;;6.15;;
34200;SDS011;20469;55.638;37.670;2023-04-05T09:55:24;14.80;;;6.00;;
34200;SDS011;20469;55.638;37.670;2023-04-05T09:57:53;16.65;;;5.90;;
34200;SDS011;20469;55.638;37.670;2023-04-05T10:00:21;18.13;;;6.60;;
34200;SDS011;20469;55.638;37.670;2023-04-05T10:02:52;11.73;;;5.07;;
34200;SDS011;20469;55.638;37.670;2023-04-05T10:05:27;16.35;;;5.93;;
34200;SDS011;20469;55.638;37.670;2023-04-05T10:07:55;11.80;;;5.85;;
34200;SDS011;20469;55.638;37.670;2023-04-05T10:10:22;17.55;;;5.78;;
34200;SDS011;20469;55.638;37.670;2023-04-05T10:12:50;11.80;;;5.55;;
34200;SDS011;20469;55.638;37.670;2023-04-05T10:15:19;9.55;;;5.35;;
34200;SDS011;20469;55.638;37.670;2023-04-05T10:17:47;11.68;;;5.57;;
34200;SDS011;20469;55.638;37.670;2023-04-05T10:20:19;11.18;;;5.18;;
34200;SDS011;20469;55.638;37.670;2023-04-05T10:28:34;13.85;;;5.35;;
34200;SDS011;20469;55.638;37.670;2023-04-05T10:34:04;13.27;;;5.30;;
34200;SDS011;20469;55.638;37.670;2023-04-05T10:36:44;11.50;;;4.55;;
34200;SDS011;20469;55.638;37.670;2023-04-05T10:39:21;11.60;;;4.68;;
34200;SDS011;20469;55.638;37.670;2023-04-05T10:42:06;11.38;;;4.63;;
34200;SDS011;20469;55.638;37.670;2023-04-05T10:44:52;12.38;;;4.93;;
34200;SDS011;20469;55.638;37.670;2023-04-05T10:47:28;13.07;;;5.63;;
34200;SDS011;20469;55.638;37.670;2023-04-05T10:49:58;16.58;;;5.68;;
34200;SDS011;20469;55.638;37.670;2023-04-05T10:52:29;13.57;;;5.57;;
34200;SDS011;20469;55.638;37.670;2023-04-05T10:54:56;11.75;;;5.53;;
34200;SDS011;20469;55.638;37.670;2023-04-05T10:57:25;12.40;;;5.50;;
34200;SDS011;20469;55.638;37.670;2023-04-05T10:59:53;14.98;;;5.70;;
34200;SDS011;20469;55.638;37.670;2023-04-05T11:02:20;18.95;;;5.68;;
34200;SDS011;20469;55.638;37.670;2023-04-05T11:04:54;10.60;;;5.53;;
34200;SDS011;20469;55.638;37.670;2023-04-05T11:07:22;13.98;;;5.78;;
34200;SDS011;20469;55.638;37.670;2023-04-05T11:15:31;11.15;;;5.40;;
34200;SDS011;20469;55.638;37.670;2023-04-05T11:18:11;12.65;;;5.85;;
34200;SDS011;20469;55.638;37.670;2023-04-05T11:20:53;12.57;;;5.00;;
34200;SDS011;20469;55.638;37.670;2023-04-05T11:23:31;21.55;;;5.28;;
34200;SDS011;20469;55.638;37.670;2023-04-05T11:26:18;22.13;;;5.82;;
34200;SDS011;20469;55.638;37.670;2023-04-05T11:28:45;14.05;;;5.45;;
34200;SDS011;20469;55.638;37.670;2023-04-05T11:36:57;8.50;;;5.15;;
34200;SDS011;20469;55.638;37.670;2023-04-05T11:44:42;12.52;;;5.32;;
34200;SDS011;20469;55.638;37.670;2023-04-05T11:47:17;13.60;;;5.90;;
34200;SDS011;20469;55.638;37.670;2023-04-05T11:49:49;11.13;;;5.07;;
34200;SDS011;20469;55.638;37.670;2023-04-05T11:52:18;13.27;;;5.20;;
34200;SDS011;20469;55.638;37.670;2023-04-05T11:54:46;9.95;;;5.43;;
34200;SDS011;20469;55.638;37.670;2023-04-05T11:57:18;15.65;;;5.20;;
34200;SDS011;20469;55.638;37.670;2023-04-05T11:59:48;18.00;;;5.38;;
34200;SDS011;20469;55.638;37.670;2023-04-05T12:02:17;12.73;;;5.55;;
34200;SDS011;20469;55.638;37.670;2023-04-05T12:04:52;14.63;;;5.30;;
34200;SDS011;20469;55.638;37.670;2023-04-05T12:07:24;12.38;;;4.95;;
34200;SDS011;20469;55.638;37.670;2023-04-05T12:10:04;12.40;;;4.72;;
34200;SDS011;20469;55.638;37.670;2023-04-05T12:12:41;10.48;;;4.40;;
34200;SDS011;20469;55.638;37.670;2023-04-05T12:15:11;14.23;;;4.88;;
34200;SDS011;20469;55.638;37.670;2023-04-05T12:17:47;12.45;;;4.60;;
34200;SDS011;20469;55.638;37.670;2023-04-05T12:20:18;11.00;;;4.90;;
34200;SDS011;20469;55.638;37.670;2023-04-05T12:22:52;11.73;;;5.18;;
34200;SDS011;20469;55.638;37.670;2023-04-05T12:25:21;15.10;;;5.22;;
34200;SDS011;20469;55.638;37.670;2023-04-05T12:27:49;12.32;;;5.25;;
34200;SDS011;20469;55.638;37.670;2023-04-05T12:30:20;13.32;;;4.85;;
34200;SDS011;20469;55.638;37.670;2023-04-05T12:32:50;9.23;;;5.07;;
34200;SDS011;20469;55.638;37.670;2023-04-05T12:35:21;12.43;;;4.45;;
34200;SDS011;20469;55.638;37.670;2023-04-05T12:37:50;15.20;;;5.70;;
34200;SDS011;20469;55.638;37.670;2023-04-05T12:40:21;13.00;;;5.47;;
34200;SDS011;20469;55.638;37.670;2023-04-05T12:42:50;12.55;;;5.10;;
34200;SDS011;20469;55.638;37.670;2023-04-05T12:45:17;10.45;;;4.20;;
34200;SDS011;20469;55.638;37.670;2023-04-05T12:47:49;9.07;;;4.25;;
34200;SDS011;20469;55.638;37.670;2023-04-05T12:50:28;12.55;;;4.70;;
34200;SDS011;20469;55.638;37.670;2023-04-05T12:53:00;7.53;;;3.60;;
34200;SDS011;20469;55.638;37.670;2023-04-05T12:55:31;9.50;;;4.10;;
34200;SDS011;20469;55.638;37.670;2023-04-05T13:00:30;8.82;;;4.00;;
34200;SDS011;20469;55.638;37.670;2023-04-05T13:02:58;10.70;;;4.57;;
34200;SDS011;20469;55.638;37.670;2023-04-05T13:05:26;8.43;;;4.38;;
34200;SDS011;20469;55.638;37.670;2023-04-05T13:07:55;13.90;;;4.68;;
34200;SDS011;20469;55.638;37.670;2023-04-05T13:10:23;13.20;;;4.68;;
34200;SDS011;20469;55.638;37.670;2023-04-05T13:12:51;8.38;;;3.75;;
34200;SDS011;20469;55.638;37.670;2023-04-05T13:15:18;9.15;;;4.13;;
34200;SDS011;20469;55.638;37.670;2023-04-05T13:17:45;8.88;;;3.75;;
34200;SDS011;20469;55.638;37.670;2023-04-05T13:20:15;9.07;;;4.30;;
34200;SDS011;20469;55.638;37.670;2023-04-05T13:22:43;12.52;;;3.80;;
34200;SDS011;20469;55.638;37.670;2023-04-05T13:25:12;11.85;;;4.22;;
34200;SDS011;20469;55.638;37.670;2023-04-05T13:27:40;10.07;;;4.07;;
34200;SDS011;20469;55.638;37.670;2023-04-05T13:30:08;11.43;;;3.75;;
34200;SDS011;20469;55.638;37.670;2023-04-05T13:32:35;12.50;;;3.67;;
34200;SDS011;20469;55.638;37.670;2023-04-05T13:35:02;10.45;;;4.03;;
34200;SDS011;20469;55.638;37.670;2023-04-05T13:37:31;9.80;;;3.63;;
34200;SDS011;20469;55.638;37.670;2023-04-05T13:42:43;8.10;;;3.40;;
34200;SDS011;20469;55.638;37.670;2023-04-05T13:45:11;13.18;;;4.13;;
34200;SDS011;20469;55.638;37.670;2023-04-05T13:47:38;12.30;;;3.78;;
34200;SDS011;20469;55.638;37.670;2023-04-05T13:50:06;11.82;;;4.25;;
34200;SDS011;20469;55.638;37.670;2023-04-05T13:52:33;9.45;;;3.80;;
34200;SDS011;20469;55.638;37.670;2023-04-05T13:55:00;10.13;;;4.00;;
34200;SDS011;20469;55.638;37.670;2023-04-05T13:57:29;12.50;;;3.80;;
34200;SDS011;20469;55.638;37.670;2023-04-05T13:59:56;15.30;;;4.22;;
34200;SDS011;20469;55.638;37.670;2023-04-05T14:02:24;13.38;;;4.60;;
34200;SDS011;20469;55.638;37.670;2023-04-05T14:04:52;12.32;;;4.43;;
34200;SDS011;20469;55.638;37.670;2023-04-05T14:07:20;9.90;;;4.25;;
34200;SDS011;20469;55.638;37.670;2023-04-05T14:09:48;12.00;;;4.35;;
34200;SDS011;20469;55.638;37.670;2023-04-05T14:12:15;15.70;;;4.35;;
34200;SDS011;20469;55.638;37.670;2023-04-05T14:14:43;10.70;;;3.97;;
34200;SDS011;20469;55.638;37.670;2023-04-05T14:17:10;8.80;;;4.07;;
34200;SDS011;20469;55.638;37.670;2023-04-05T14:19:38;14.30;;;4.10;;
34200;SDS011;20469;55.638;37.670;2023-04-05T14:22:05;10.05;;;4.13;;
34200;SDS011;20469;55.638;37.670;2023-04-05T14:24:32;9.85;;;4.65;;
34200;SDS011;20469;55.638;37.670;2023-04-05T14:26:59;10.25;;;3.95;;
34200;SDS011;20469;55.638;37.670;2023-04-05T14:29:27;12.07;;;3.95;;
34200;SDS011;20469;55.638;37.670;2023-04-05T14:31:55;15.00;;;4.32;;
34200;SDS011;20469;55.638;37.670;2023-04-05T14:34:23;10.35;;;3.90;;
34200;SDS011;20469;55.638;37.670;2023-04-05T14:36:50;9.90;;;4.10;;
34200;SDS011;20469;55.638;37.670;2023-04-05T14:39:18;12.80;;;4.03;;
34200;SDS011;20469;55.638;37.670;2023-04-05T14:41:46;9.80;;;3.92;;
34200;SDS011;20469;55.638;37.670;2023-04-05T14:44:18;10.25;;;3.97;;
34200;SDS011;20469;55.638;37.670;2023-04-05T14:46:45;12.35;;;3.90;;
34200;SDS011;20469;55.638;37.670;2023-04-05T14:49:15;12.35;;;4.03;;
34200;SDS011;20469;55.638;37.670;2023-04-05T14:51:43;11.50;;;4.28;;
34200;SDS011;20469;55.638;37.670;2023-04-05T14:54:10;9.38;;;4.15;;
34200;SDS011;20469;55.638;37.670;2023-04-05T14:56:37;13.95;;;4.25;;
34200;SDS011;20469;55.638;37.670;2023-04-05T14:59:05;14.55;;;4.40;;
34200;SDS011;20469;55.638;37.670;2023-04-05T15:01:32;11.05;;;4.20;;
34200;SDS011;20469;55.638;37.670;2023-04-05T15:04:00;10.43;;;4.05;;
34200;SDS011;20469;55.638;37.670;2023-04-05T15:06:27;11.18;;;3.92;;
34200;SDS011;20469;55.638;37.670;2023-04-05T15:08:55;12.55;;;4.10;;
34200;SDS011;20469;55.638;37.670;2023-04-05T15:11:22;10.45;;;4.03;;
34200;SDS011;20469;55.638;37.670;2023-04-05T15:13:50;11.32;;;4.47;;
34200;SDS011;20469;55.638;37.670;2023-04-05T15:16:17;15.20;;;4.13;;
34200;SDS011;20469;55.638;37.670;2023-04-05T15:18:45;12.73;;;3.95;;
34200;SDS011;20469;55.638;37.670;2023-04-05T15:21:13;10.93;;;4.07;;